sensor_id;sensor_type;location;lat;lon;timestamp;P1;durP1;ratioP1;P2;durP2;ratioP2
61204;SDS011;47068;55.780;37.520;2023-03-01T00:00:54;2.08;;;0.35;;
61204;SDS011;47068;55.780;37.520;2023-03-01T00:03:19;1.63;;;0.43;;
61204;SDS011;47068;55.780;37.520;2023-03-01T00:05:45;2.47;;;0.67;;
61204;SDS011;47068;55.780;37.520;2023-03-01T00:08:11;1.88;;;0.43;;
61204;SDS011;47068;55.780;37.520;2023-03-01T00:10:36;2.27;;;0.60;;
61204;SDS011;47068;55.780;37.520;2023-03-01T00:13:01;1.17;;;0.77;;
61204;SDS011;47068;55.780;37.520;2023-03-01T00:15:27;2.60;;;0.95;;
61204;SDS011;47068;55.780;37.520;2023-03-01T00:17:52;2.60;;;0.60;;
61204;SDS011;47068;55.780;37.520;2023-03-01T00:20:17;4.63;;;1.40;;
61204;SDS011;47068;55.780;37.520;2023-03-01T00:22:43;3.43;;;1.00;;
61204;SDS011;47068;55.780;37.520;2023-03-01T00:25:08;2.97;;;1.07;;
61204;SDS011;47068;55.780;37.520;2023-03-01T00:27:34;3.05;;;1.00;;
61204;SDS011;47068;55.780;37.520;2023-03-01T00:29:59;0.97;;;0.23;;
61204;SDS011;47068;55.780;37.520;2023-03-01T00:32:24;3.60;;;2.20;;
61204;SDS011;47068;55.780;37.520;2023-03-01T00:34:50;1.63;;;0.50;;
61204;SDS011;47068;55.780;37.520;2023-03-01T00:37:21;2.40;;;1.03;;
61204;SDS011;47068;55.780;37.520;2023-03-01T00:39:46;0.95;;;0.28;;
61204;SDS011;47068;55.780;37.520;2023-03-01T00:42:12;1.67;;;0.45;;
61204;SDS011;47068;55.780;37.520;2023-03-01T00:44:37;1.40;;;0.43;;
61204;SDS011;47068;55.780;37.520;2023-03-01T00:47:02;2.17;;;0.57;;
61204;SDS011;47068;55.780;37.520;2023-03-01T00:49:27;1.33;;;0.33;;
61204;SDS011;47068;55.780;37.520;2023-03-01T00:51:53;1.77;;;0.53;;
61204;SDS011;47068;55.780;37.520;2023-03-01T00:54:18;1.30;;;0.47;;
61204;SDS011;47068;55.780;37.520;2023-03-01T00:56:43;2.10;;;0.70;;
61204;SDS011;47068;55.780;37.520;2023-03-01T00:59:09;0.83;;;0.20;;
61204;SDS011;47068;55.780;37.520;2023-03-01T01:01:34;0.80;;;0.30;;
61204;SDS011;47068;55.780;37.520;2023-03-01T01:04:01;0.20;;;0.00;;
61204;SDS011;47068;55.780;37.520;2023-03-01T01:06:27;1.13;;;0.33;;
61204;SDS011;47068;55.780;37.520;2023-03-01T01:08:54;0.50;;;0.17;;
61204;SDS011;47068;55.780;37.520;2023-03-01T01:11:20;1.05;;;0.45;;
61204;SDS011;47068;55.780;37.520;2023-03-01T01:13:46;0.70;;;0.35;;
61204;SDS011;47068;55.780;37.520;2023-03-01T01:16:11;0.82;;;0.20;;
61204;SDS011;47068;55.780;37.520;2023-03-01T01:18:37;1.97;;;0.70;;
61204;SDS011;47068;55.780;37.520;2023-03-01T01:21:03;0.97;;;0.30;;
61204;SDS011;47068;55.780;37.520;2023-03-01T01:25:54;0.73;;;0.22;;
61204;SDS011;47068;55.780;37.520;2023-03-01T01:28:19;0.20;;;0.00;;
61204;SDS011;47068;55.780;37.520;2023-03-01T01:30:44;1.00;;;0.33;;
61204;SDS011;47068;55.780;37.520;2023-03-01T01:33:09;0.87;;;0.33;;
61204;SDS011;47068;55.780;37.520;2023-03-01T01:35:35;0.97;;;0.20;;
61204;SDS011;47068;55.780;37.520;2023-03-01T01:38:00;0.13;;;0.13;;
61204;SDS011;47068;55.780;37.520;2023-03-01T01:40:25;1.10;;;0.40;;
61204;SDS011;47068;55.780;37.520;2023-03-01T01:42:50;0.87;;;0.47;;
61204;SDS011;47068;55.780;37.520;2023-03-01T01:45:29;0.57;;;0.20;;
61204;SDS011;47068;55.780;37.520;2023-03-01T01:47:57;0.40;;;0.10;;
61204;SDS011;47068;55.780;37.520;2023-03-01T01:50:23;0.53;;;0.17;;
61204;SDS011;47068;55.780;37.520;2023-03-01T01:52:49;0.57;;;0.27;;
61204;SDS011;47068;55.780;37.520;2023-03-01T01:55:16;1.70;;;0.47;;
61204;SDS011;47068;55.780;37.520;2023-03-01T01:57:46;1.33;;;0.57;;
61204;SDS011;47068;55.780;37.520;2023-03-01T02:00:13;1.93;;;0.50;;
61204;SDS011;47068;55.780;37.520;2023-03-01T02:02:39;0.70;;;0.23;;
61204;SDS011;47068;55.780;37.520;2023-03-01T02:05:08;0.67;;;0.20;;
61204;SDS011;47068;55.780;37.520;2023-03-01T02:07:36;3.47;;;0.73;;
61204;SDS011;47068;55.780;37.520;2023-03-01T02:10:03;0.37;;;0.10;;
61204;SDS011;47068;55.780;37.520;2023-03-01T02:12:28;1.53;;;0.40;;
61204;SDS011;47068;55.780;37.520;2023-03-01T02:14:54;0.47;;;0.20;;
61204;SDS011;47068;55.780;37.520;2023-03-01T02:17:19;0.37;;;0.13;;
61204;SDS011;47068;55.780;37.520;2023-03-01T02:22:18;1.13;;;0.28;;
61204;SDS011;47068;55.780;37.520;2023-03-01T02:27:14;1.23;;;0.30;;
61204;SDS011;47068;55.780;37.520;2023-03-01T02:29:41;1.70;;;0.43;;
61204;SDS011;47068;55.780;37.520;2023-03-01T02:32:08;0.80;;;0.20;;
61204;SDS011;47068;55.780;37.520;2023-03-01T02:37:02;1.03;;;0.20;;
61204;SDS011;47068;55.780;37.520;2023-03-01T02:39:46;0.53;;;0.20;;
61204;SDS011;47068;55.780;37.520;2023-03-01T02:42:14;0.37;;;0.13;;
61204;SDS011;47068;55.780;37.520;2023-03-01T02:44:40;0.87;;;0.47;;
61204;SDS011;47068;55.780;37.520;2023-03-01T02:47:05;0.73;;;0.20;;
61204;SDS011;47068;55.780;37.520;2023-03-01T02:49:32;0.83;;;0.30;;
61204;SDS011;47068;55.780;37.520;2023-03-01T02:54:39;1.40;;;0.40;;
61204;SDS011;47068;55.780;37.520;2023-03-01T02:57:05;1.27;;;0.30;;
61204;SDS011;47068;55.780;37.520;2023-03-01T02:59:31;0.77;;;0.20;;
61204;SDS011;47068;55.780;37.520;2023-03-01T03:02:00;1.13;;;0.30;;
61204;SDS011;47068;55.780;37.520;2023-03-01T03:04:28;1.13;;;0.30;;
61204;SDS011;47068;55.780;37.520;2023-03-01T03:06:53;1.23;;;0.30;;
61204;SDS011;47068;55.780;37.520;2023-03-01T03:09:19;0.70;;;0.13;;
61204;SDS011;47068;55.780;37.520;2023-03-01T03:11:44;0.40;;;0.10;;
61204;SDS011;47068;55.780;37.520;2023-03-01T03:14:10;2.00;;;0.50;;
61204;SDS011;47068;55.780;37.520;2023-03-01T03:16:50;0.97;;;0.30;;
61204;SDS011;47068;55.780;37.520;2023-03-01T03:19:17;6.37;;;2.17;;
61204;SDS011;47068;55.780;37.520;2023-03-01T03:24:08;2.83;;;0.75;;
61204;SDS011;47068;55.780;37.520;2023-03-01T03:26:34;2.75;;;0.70;;
61204;SDS011;47068;55.780;37.520;2023-03-01T03:28:59;4.40;;;1.20;;
61204;SDS011;47068;55.780;37.520;2023-03-01T03:31:24;2.50;;;0.80;;
61204;SDS011;47068;55.780;37.520;2023-03-01T03:33:50;1.25;;;0.28;;
61204;SDS011;47068;55.780;37.520;2023-03-01T03:36:16;1.83;;;0.43;;
61204;SDS011;47068;55.780;37.520;2023-03-01T03:38:43;1.63;;;0.40;;
61204;SDS011;47068;55.780;37.520;2023-03-01T03:41:08;2.22;;;0.55;;
61204;SDS011;47068;55.780;37.520;2023-03-01T03:43:34;3.00;;;0.87;;
61204;SDS011;47068;55.780;37.520;2023-03-01T03:46:00;1.50;;;0.40;;
61204;SDS011;47068;55.780;37.520;2023-03-01T03:48:25;1.58;;;0.40;;
61204;SDS011;47068;55.780;37.520;2023-03-01T03:50:54;0.95;;;0.20;;
61204;SDS011;47068;55.780;37.520;2023-03-01T03:53:21;1.43;;;0.50;;
61204;SDS011;47068;55.780;37.520;2023-03-01T03:55:46;1.20;;;0.33;;
61204;SDS011;47068;55.780;37.520;2023-03-01T03:58:14;2.07;;;0.33;;
61204;SDS011;47068;55.780;37.520;2023-03-01T04:00:41;1.58;;;0.40;;
61204;SDS011;47068;55.780;37.520;2023-03-01T04:03:07;1.80;;;0.53;;
61204;SDS011;47068;55.780;37.520;2023-03-01T04:05:33;1.92;;;0.70;;
61204;SDS011;47068;55.780;37.520;2023-03-01T04:07:58;1.07;;;0.27;;
61204;SDS011;47068;55.780;37.520;2023-03-01T04:10:27;2.20;;;0.90;;
61204;SDS011;47068;55.780;37.520;2023-03-01T04:12:52;1.00;;;0.20;;
61204;SDS011;47068;55.780;37.520;2023-03-01T04:15:18;1.17;;;0.20;;
61204;SDS011;47068;55.780;37.520;2023-03-01T04:17:44;0.73;;;0.10;;
61204;SDS011;47068;55.780;37.520;2023-03-01T04:20:10;1.25;;;0.28;;
61204;SDS011;47068;55.780;37.520;2023-03-01T04:22:36;0.95;;;0.30;;
61204;SDS011;47068;55.780;37.520;2023-03-01T04:25:01;0.13;;;0.10;;
61204;SDS011;47068;55.780;37.520;2023-03-01T04:27:27;0.73;;;0.20;;
61204;SDS011;47068;55.780;37.520;2023-03-01T04:29:52;1.10;;;0.47;;
61204;SDS011;47068;55.780;37.520;2023-03-01T04:32:18;0.80;;;0.40;;
61204;SDS011;47068;55.780;37.520;2023-03-01T04:34:43;2.43;;;1.03;;
61204;SDS011;47068;55.780;37.520;2023-03-01T04:37:08;3.37;;;0.60;;
61204;SDS011;47068;55.780;37.520;2023-03-01T04:39:34;1.03;;;0.30;;
61204;SDS011;47068;55.780;37.520;2023-03-01T04:42:19;1.15;;;0.40;;
61204;SDS011;47068;55.780;37.520;2023-03-01T04:44:45;2.67;;;0.70;;
61204;SDS011;47068;55.780;37.520;2023-03-01T04:47:10;4.18;;;3.13;;
61204;SDS011;47068;55.780;37.520;2023-03-01T04:49:36;3.90;;;1.60;;
61204;SDS011;47068;55.780;37.520;2023-03-01T04:52:01;12.03;;;11.23;;
61204;SDS011;47068;55.780;37.520;2023-03-01T04:54:30;18.87;;;17.67;;
61204;SDS011;47068;55.780;37.520;2023-03-01T04:56:56;24.37;;;22.43;;
61204;SDS011;47068;55.780;37.520;2023-03-01T04:59:22;90.30;;;54.13;;
61204;SDS011;47068;55.780;37.520;2023-03-01T05:01:50;78.60;;;51.40;;
61204;SDS011;47068;55.780;37.520;2023-03-01T05:04:16;43.30;;;38.80;;
61204;SDS011;47068;55.780;37.520;2023-03-01T05:06:41;52.40;;;40.60;;
61204;SDS011;47068;55.780;37.520;2023-03-01T05:09:07;48.13;;;43.33;;
61204;SDS011;47068;55.780;37.520;2023-03-01T05:11:32;65.87;;;50.03;;
61204;SDS011;47068;55.780;37.520;2023-03-01T05:14:04;39.40;;;35.70;;
61204;SDS011;47068;55.780;37.520;2023-03-01T05:16:29;35.57;;;32.00;;
61204;SDS011;47068;55.780;37.520;2023-03-01T05:21:21;41.03;;;37.17;;
61204;SDS011;47068;55.780;37.520;2023-03-01T05:23:47;45.63;;;41.70;;
61204;SDS011;47068;55.780;37.520;2023-03-01T05:26:12;51.17;;;46.47;;
61204;SDS011;47068;55.780;37.520;2023-03-01T05:28:38;43.83;;;40.38;;
61204;SDS011;47068;55.780;37.520;2023-03-01T05:31:03;60.97;;;54.33;;
61204;SDS011;47068;55.780;37.520;2023-03-01T05:33:34;53.83;;;48.50;;
61204;SDS011;47068;55.780;37.520;2023-03-01T05:36:00;58.17;;;52.50;;
61204;SDS011;47068;55.780;37.520;2023-03-01T05:38:25;60.88;;;54.67;;
61204;SDS011;47068;55.780;37.520;2023-03-01T05:40:50;78.60;;;57.80;;
61204;SDS011;47068;55.780;37.520;2023-03-01T05:43:16;82.03;;;58.43;;
61204;SDS011;47068;55.780;37.520;2023-03-01T05:45:43;51.33;;;47.43;;
61204;SDS011;47068;55.780;37.520;2023-03-01T05:48:09;59.38;;;51.40;;
61204;SDS011;47068;55.780;37.520;2023-03-01T05:50:36;75.00;;;63.70;;
61204;SDS011;47068;55.780;37.520;2023-03-01T05:53:03;79.17;;;60.37;;
61204;SDS011;47068;55.780;37.520;2023-03-01T05:55:30;124.47;;;73.87;;
61204;SDS011;47068;55.780;37.520;2023-03-01T05:57:59;147.63;;;75.68;;
61204;SDS011;47068;55.780;37.520;2023-03-01T06:00:25;126.93;;;76.90;;
61204;SDS011;47068;55.780;37.520;2023-03-01T06:02:50;122.82;;;73.68;;
61204;SDS011;47068;55.780;37.520;2023-03-01T06:05:17;67.13;;;57.50;;
61204;SDS011;47068;55.780;37.520;2023-03-01T06:07:42;85.38;;;64.43;;
61204;SDS011;47068;55.780;37.520;2023-03-01T06:10:09;42.50;;;39.30;;
61204;SDS011;47068;55.780;37.520;2023-03-01T06:12:35;39.13;;;36.57;;
61204;SDS011;47068;55.780;37.520;2023-03-01T06:17:28;52.70;;;48.30;;
61204;SDS011;47068;55.780;37.520;2023-03-01T06:19:54;51.20;;;46.67;;
61204;SDS011;47068;55.780;37.520;2023-03-01T06:22:19;48.03;;;45.03;;
61204;SDS011;47068;55.780;37.520;2023-03-01T06:24:44;58.37;;;53.93;;
61204;SDS011;47068;55.780;37.520;2023-03-01T06:27:10;1.47;;;0.77;;
61204;SDS011;47068;55.780;37.520;2023-03-01T06:29:35;26.43;;;24.93;;
61204;SDS011;47068;55.780;37.520;2023-03-01T06:32:02;40.80;;;38.60;;
61204;SDS011;47068;55.780;37.520;2023-03-01T06:34:27;53.63;;;50.57;;
61204;SDS011;47068;55.780;37.520;2023-03-01T06:36:52;41.80;;;39.53;;
61204;SDS011;47068;55.780;37.520;2023-03-01T06:39:18;57.73;;;54.43;;
61204;SDS011;47068;55.780;37.520;2023-03-01T06:41:43;36.00;;;34.17;;
61204;SDS011;47068;55.780;37.520;2023-03-01T06:44:09;6.53;;;5.15;;
61204;SDS011;47068;55.780;37.520;2023-03-01T06:46:34;44.27;;;41.87;;
61204;SDS011;47068;55.780;37.520;2023-03-01T06:48:59;34.30;;;32.30;;
61204;SDS011;47068;55.780;37.520;2023-03-01T06:51:25;5.40;;;4.90;;
61204;SDS011;47068;55.780;37.520;2023-03-01T06:53:50;6.32;;;4.00;;
61204;SDS011;47068;55.780;37.520;2023-03-01T06:56:16;4.00;;;3.60;;
61204;SDS011;47068;55.780;37.520;2023-03-01T06:58:41;7.67;;;7.10;;
61204;SDS011;47068;55.780;37.520;2023-03-01T07:01:07;4.73;;;3.87;;
61204;SDS011;47068;55.780;37.520;2023-03-01T07:03:32;40.88;;;38.45;;
61204;SDS011;47068;55.780;37.520;2023-03-01T07:05:58;6.97;;;6.13;;
61204;SDS011;47068;55.780;37.520;2023-03-01T07:08:23;2.08;;;1.63;;
61204;SDS011;47068;55.780;37.520;2023-03-01T07:10:54;0.77;;;0.30;;
61204;SDS011;47068;55.780;37.520;2023-03-01T07:13:19;1.67;;;0.73;;
61204;SDS011;47068;55.780;37.520;2023-03-01T07:15:44;0.47;;;0.30;;
61204;SDS011;47068;55.780;37.520;2023-03-01T07:18:09;0.40;;;0.20;;
61204;SDS011;47068;55.780;37.520;2023-03-01T07:20:35;239.30;;;216.50;;
61204;SDS011;47068;55.780;37.520;2023-03-01T07:23:00;185.87;;;175.83;;
61204;SDS011;47068;55.780;37.520;2023-03-01T07:25:25;290.80;;;270.07;;
61204;SDS011;47068;55.780;37.520;2023-03-01T07:27:51;575.90;;;348.30;;
61204;SDS011;47068;55.780;37.520;2023-03-01T07:30:17;259.92;;;236.23;;
61204;SDS011;47068;55.780;37.520;2023-03-01T07:32:42;0.53;;;0.33;;
61204;SDS011;47068;55.780;37.520;2023-03-01T07:35:08;137.07;;;124.13;;
61204;SDS011;47068;55.780;37.520;2023-03-01T07:37:33;420.52;;;388.52;;
61204;SDS011;47068;55.780;37.520;2023-03-01T07:39:58;4.07;;;0.93;;
61204;SDS011;47068;55.780;37.520;2023-03-01T07:42:24;5.70;;;0.60;;
61204;SDS011;47068;55.780;37.520;2023-03-01T07:44:49;2.57;;;0.60;;
61204;SDS011;47068;55.780;37.520;2023-03-01T07:47:15;1.00;;;0.40;;
61204;SDS011;47068;55.780;37.520;2023-03-01T07:49:40;0.80;;;0.30;;
61204;SDS011;47068;55.780;37.520;2023-03-01T07:52:05;1.83;;;0.20;;
61204;SDS011;47068;55.780;37.520;2023-03-01T07:54:30;1.33;;;0.43;;
61204;SDS011;47068;55.780;37.520;2023-03-01T07:56:56;1.90;;;1.07;;
61204;SDS011;47068;55.780;37.520;2023-03-01T07:59:22;3.83;;;0.35;;
61204;SDS011;47068;55.780;37.520;2023-03-01T08:01:53;427.67;;;390.10;;
61204;SDS011;47068;55.780;37.520;2023-03-01T08:04:19;546.97;;;508.53;;
61204;SDS011;47068;55.780;37.520;2023-03-01T08:06:44;323.27;;;302.97;;
61204;SDS011;47068;55.780;37.520;2023-03-01T08:09:09;301.20;;;282.73;;
61204;SDS011;47068;55.780;37.520;2023-03-01T08:11:34;238.23;;;223.83;;
61204;SDS011;47068;55.780;37.520;2023-03-01T08:14:00;1.50;;;0.63;;
61204;SDS011;47068;55.780;37.520;2023-03-01T08:16:25;3.27;;;0.90;;
61204;SDS011;47068;55.780;37.520;2023-03-01T08:18:51;7.27;;;0.83;;
61204;SDS011;47068;55.780;37.520;2023-03-01T08:21:17;0.82;;;0.15;;
61204;SDS011;47068;55.780;37.520;2023-03-01T08:23:42;1.23;;;0.40;;
61204;SDS011;47068;55.780;37.520;2023-03-01T08:26:18;2.63;;;0.63;;
61204;SDS011;47068;55.780;37.520;2023-03-01T08:28:44;0.15;;;0.05;;
61204;SDS011;47068;55.780;37.520;2023-03-01T08:31:14;0.93;;;0.20;;
61204;SDS011;47068;55.780;37.520;2023-03-01T08:33:40;1.60;;;0.33;;
61204;SDS011;47068;55.780;37.520;2023-03-01T08:36:05;1.07;;;0.73;;
61204;SDS011;47068;55.780;37.520;2023-03-01T08:38:32;0.90;;;0.32;;
61204;SDS011;47068;55.780;37.520;2023-03-01T08:40:59;0.82;;;0.05;;
61204;SDS011;47068;55.780;37.520;2023-03-01T08:43:24;0.73;;;0.10;;
61204;SDS011;47068;55.780;37.520;2023-03-01T08:45:49;0.10;;;0.10;;
61204;SDS011;47068;55.780;37.520;2023-03-01T08:48:15;3.40;;;0.47;;
61204;SDS011;47068;55.780;37.520;2023-03-01T08:50:40;1.80;;;0.30;;
61204;SDS011;47068;55.780;37.520;2023-03-01T08:53:06;3.20;;;0.50;;
61204;SDS011;47068;55.780;37.520;2023-03-01T08:55:31;1.60;;;0.13;;
61204;SDS011;47068;55.780;37.520;2023-03-01T08:57:56;0.00;;;0.00;;
61204;SDS011;47068;55.780;37.520;2023-03-01T09:00:24;0.00;;;0.00;;
61204;SDS011;47068;55.780;37.520;2023-03-01T09:02:50;0.00;;;0.00;;
61204;SDS011;47068;55.780;37.520;2023-03-01T09:05:17;1.40;;;0.33;;
61204;SDS011;47068;55.780;37.520;2023-03-01T09:07:43;0.40;;;0.17;;
61204;SDS011;47068;55.780;37.520;2023-03-01T09:10:08;2.73;;;1.37;;
61204;SDS011;47068;55.780;37.520;2023-03-01T09:12:34;0.63;;;0.45;;
61204;SDS011;47068;55.780;37.520;2023-03-01T09:14:59;0.40;;;0.20;;
61204;SDS011;47068;55.780;37.520;2023-03-01T09:17:24;4.73;;;1.13;;
61204;SDS011;47068;55.780;37.520;2023-03-01T09:19:49;0.00;;;0.00;;
61204;SDS011;47068;55.780;37.520;2023-03-01T09:22:15;1.35;;;0.20;;
61204;SDS011;47068;55.780;37.520;2023-03-01T09:24:40;0.17;;;0.07;;
61204;SDS011;47068;55.780;37.520;2023-03-01T09:27:06;0.23;;;0.07;;
61204;SDS011;47068;55.780;37.520;2023-03-01T09:29:34;5.23;;;0.93;;
61204;SDS011;47068;55.780;37.520;2023-03-01T09:31:59;0.55;;;0.30;;
61204;SDS011;47068;55.780;37.520;2023-03-01T09:34:25;1.95;;;0.60;;
61204;SDS011;47068;55.780;37.520;2023-03-01T09:36:51;0.90;;;0.45;;
61204;SDS011;47068;55.780;37.520;2023-03-01T09:39:16;0.70;;;0.20;;
61204;SDS011;47068;55.780;37.520;2023-03-01T09:46:52;0.57;;;0.40;;
61204;SDS011;47068;55.780;37.520;2023-03-01T09:49:23;0.37;;;0.27;;
61204;SDS011;47068;55.780;37.520;2023-03-01T09:51:56;1.03;;;0.30;;
61204;SDS011;47068;55.780;37.520;2023-03-01T09:54:22;0.57;;;0.27;;
61204;SDS011;47068;55.780;37.520;2023-03-01T09:56:57;0.07;;;0.00;;
61204;SDS011;47068;55.780;37.520;2023-03-01T09:59:29;1.35;;;0.28;;
61204;SDS011;47068;55.780;37.520;2023-03-01T10:04:46;0.00;;;0.00;;
61204;SDS011;47068;55.780;37.520;2023-03-01T10:07:21;0.13;;;0.03;;
61204;SDS011;47068;55.780;37.520;2023-03-01T10:09:50;0.23;;;0.00;;
61204;SDS011;47068;55.780;37.520;2023-03-01T10:12:17;0.00;;;0.00;;
61204;SDS011;47068;55.780;37.520;2023-03-01T10:17:13;0.03;;;0.00;;
61204;SDS011;47068;55.780;37.520;2023-03-01T10:19:43;0.37;;;0.30;;
61204;SDS011;47068;55.780;37.520;2023-03-01T10:22:19;0.82;;;0.10;;
61204;SDS011;47068;55.780;37.520;2023-03-01T10:24:46;0.10;;;0.00;;
61204;SDS011;47068;55.780;37.520;2023-03-01T10:30:04;0.53;;;0.20;;
61204;SDS011;47068;55.780;37.520;2023-03-01T10:32:31;1.20;;;0.30;;
61204;SDS011;47068;55.780;37.520;2023-03-01T10:34:56;0.77;;;0.27;;
61204;SDS011;47068;55.780;37.520;2023-03-01T10:37:22;1.48;;;0.38;;
61204;SDS011;47068;55.780;37.520;2023-03-01T10:40:08;0.50;;;0.30;;
61204;SDS011;47068;55.780;37.520;2023-03-01T10:42:46;0.10;;;0.00;;
61204;SDS011;47068;55.780;37.520;2023-03-01T10:48:08;0.77;;;0.10;;
61204;SDS011;47068;55.780;37.520;2023-03-01T10:50:35;0.40;;;0.20;;
61204;SDS011;47068;55.780;37.520;2023-03-01T10:53:03;0.90;;;0.13;;
61204;SDS011;47068;55.780;37.520;2023-03-01T10:58:40;1.10;;;0.50;;
61204;SDS011;47068;55.780;37.520;2023-03-01T11:00:47;0.33;;;0.10;;
61204;SDS011;47068;55.780;37.520;2023-03-01T11:03:13;0.30;;;0.17;;
61204;SDS011;47068;55.780;37.520;2023-03-01T11:11:21;0.00;;;0.00;;
61204;SDS011;47068;55.780;37.520;2023-03-01T11:16:15;0.17;;;0.10;;
61204;SDS011;47068;55.780;37.520;2023-03-01T11:18:55;0.13;;;0.10;;
61204;SDS011;47068;55.780;37.520;2023-03-01T11:21:20;0.93;;;0.30;;
61204;SDS011;47068;55.780;37.520;2023-03-01T11:23:46;0.57;;;0.30;;
61204;SDS011;47068;55.780;37.520;2023-03-01T11:26:12;0.32;;;0.20;;
61204;SDS011;47068;55.780;37.520;2023-03-01T11:28:38;0.68;;;0.45;;
61204;SDS011;47068;55.780;37.520;2023-03-01T11:31:06;0.10;;;0.10;;
61204;SDS011;47068;55.780;37.520;2023-03-01T11:33:41;0.00;;;0.00;;
61204;SDS011;47068;55.780;37.520;2023-03-01T11:36:15;1.20;;;0.13;;
61204;SDS011;47068;55.780;37.520;2023-03-01T11:38:41;0.30;;;0.10;;
61204;SDS011;47068;55.780;37.520;2023-03-01T11:41:10;0.10;;;0.03;;
61204;SDS011;47068;55.780;37.520;2023-03-01T11:43:51;0.40;;;0.20;;
61204;SDS011;47068;55.780;37.520;2023-03-01T11:49:12;0.23;;;0.17;;
61204;SDS011;47068;55.780;37.520;2023-03-01T12:04:19;0.07;;;0.07;;
61204;SDS011;47068;55.780;37.520;2023-03-01T12:12:00;0.30;;;0.13;;
61204;SDS011;47068;55.780;37.520;2023-03-01T12:14:34;0.00;;;0.00;;
61204;SDS011;47068;55.780;37.520;2023-03-01T12:22:32;0.00;;;0.00;;
61204;SDS011;47068;55.780;37.520;2023-03-01T12:32:59;0.87;;;0.40;;
61204;SDS011;47068;55.780;37.520;2023-03-01T12:50:20;0.10;;;0.00;;
61204;SDS011;47068;55.780;37.520;2023-03-01T12:52:56;0.47;;;0.43;;
61204;SDS011;47068;55.780;37.520;2023-03-01T13:00:26;1.80;;;0.30;;
61204;SDS011;47068;55.780;37.520;2023-03-01T13:08:22;0.00;;;0.00;;
61204;SDS011;47068;55.780;37.520;2023-03-01T13:10:54;0.00;;;0.00;;
61204;SDS011;47068;55.780;37.520;2023-03-01T13:13:22;0.00;;;0.00;;
61204;SDS011;47068;55.780;37.520;2023-03-01T13:15:48;0.00;;;0.00;;
61204;SDS011;47068;55.780;37.520;2023-03-01T13:23:07;1.63;;;0.63;;
61204;SDS011;47068;55.780;37.520;2023-03-01T13:25:35;0.00;;;0.00;;
61204;SDS011;47068;55.780;37.520;2023-03-01T13:31:01;0.73;;;0.30;;
61204;SDS011;47068;55.780;37.520;2023-03-01T13:35:56;4.70;;;0.47;;
61204;SDS011;47068;55.780;37.520;2023-03-01T13:41:06;0.20;;;0.20;;
61204;SDS011;47068;55.780;37.520;2023-03-01T13:43:35;0.13;;;0.05;;
61204;SDS011;47068;55.780;37.520;2023-03-01T13:46:08;2.57;;;1.20;;
61204;SDS011;47068;55.780;37.520;2023-03-01T13:48:36;4.50;;;0.33;;
61204;SDS011;47068;55.780;37.520;2023-03-01T13:53:29;0.10;;;0.10;;
61204;SDS011;47068;55.780;37.520;2023-03-01T13:55:56;0.00;;;0.00;;
61204;SDS011;47068;55.780;37.520;2023-03-01T13:58:26;8.60;;;0.87;;
61204;SDS011;47068;55.780;37.520;2023-03-01T14:00:56;0.10;;;0.00;;
61204;SDS011;47068;55.780;37.520;2023-03-01T14:03:22;0.30;;;0.20;;
61204;SDS011;47068;55.780;37.520;2023-03-01T14:08:32;0.43;;;0.10;;
61204;SDS011;47068;55.780;37.520;2023-03-01T14:11:01;0.00;;;0.00;;
61204;SDS011;47068;55.780;37.520;2023-03-01T14:21:20;0.00;;;0.00;;
61204;SDS011;47068;55.780;37.520;2023-03-01T14:23:47;0.07;;;0.07;;
61204;SDS011;47068;55.780;37.520;2023-03-01T14:26:13;0.05;;;0.00;;
61204;SDS011;47068;55.780;37.520;2023-03-01T14:28:44;0.47;;;0.10;;
61204;SDS011;47068;55.780;37.520;2023-03-01T14:34:16;0.07;;;0.00;;
61204;SDS011;47068;55.780;37.520;2023-03-01T14:36:43;0.93;;;0.47;;
61204;SDS011;47068;55.780;37.520;2023-03-01T14:39:16;0.30;;;0.20;;
61204;SDS011;47068;55.780;37.520;2023-03-01T14:41:42;0.00;;;0.00;;
61204;SDS011;47068;55.780;37.520;2023-03-01T14:44:27;0.10;;;0.00;;
61204;SDS011;47068;55.780;37.520;2023-03-01T14:46:55;2.37;;;0.50;;
61204;SDS011;47068;55.780;37.520;2023-03-01T14:49:25;1.07;;;0.50;;
61204;SDS011;47068;55.780;37.520;2023-03-01T14:55:03;0.30;;;0.23;;
61204;SDS011;47068;55.780;37.520;2023-03-01T14:57:02;0.10;;;0.10;;
61204;SDS011;47068;55.780;37.520;2023-03-01T14:59:28;1.00;;;0.50;;
61204;SDS011;47068;55.780;37.520;2023-03-01T15:01:55;0.00;;;0.00;;
61204;SDS011;47068;55.780;37.520;2023-03-01T15:04:21;0.20;;;0.10;;
61204;SDS011;47068;55.780;37.520;2023-03-01T15:06:47;2.37;;;0.47;;
61204;SDS011;47068;55.780;37.520;2023-03-01T15:09:15;0.17;;;0.13;;
61204;SDS011;47068;55.780;37.520;2023-03-01T15:11:44;0.60;;;0.20;;
61204;SDS011;47068;55.780;37.520;2023-03-01T15:14:28;0.17;;;0.00;;
61204;SDS011;47068;55.780;37.520;2023-03-01T15:16:54;0.30;;;0.30;;
61204;SDS011;47068;55.780;37.520;2023-03-01T15:19:27;3.95;;;0.32;;
61204;SDS011;47068;55.780;37.520;2023-03-01T15:21:53;0.87;;;0.37;;
61204;SDS011;47068;55.780;37.520;2023-03-01T15:24:25;0.00;;;0.00;;
61204;SDS011;47068;55.780;37.520;2023-03-01T15:26:56;0.70;;;0.20;;
61204;SDS011;47068;55.780;37.520;2023-03-01T15:29:26;0.00;;;0.00;;
61204;SDS011;47068;55.780;37.520;2023-03-01T15:32:05;1.20;;;0.27;;
61204;SDS011;47068;55.780;37.520;2023-03-01T15:34:34;0.03;;;0.00;;
61204;SDS011;47068;55.780;37.520;2023-03-01T15:37:02;1.70;;;0.30;;
61204;SDS011;47068;55.780;37.520;2023-03-01T15:39:41;0.10;;;0.10;;
61204;SDS011;47068;55.780;37.520;2023-03-01T15:44:37;0.00;;;0.00;;
61204;SDS011;47068;55.780;37.520;2023-03-01T15:47:22;0.00;;;0.00;;
61204;SDS011;47068;55.780;37.520;2023-03-01T15:49:48;0.30;;;0.30;;
61204;SDS011;47068;55.780;37.520;2023-03-01T15:52:35;0.20;;;0.10;;
61204;SDS011;47068;55.780;37.520;2023-03-01T15:55:05;0.00;;;0.00;;
61204;SDS011;47068;55.780;37.520;2023-03-01T15:57:31;0.10;;;0.00;;
61204;SDS011;47068;55.780;37.520;2023-03-01T15:59:56;1.40;;;0.53;;
61204;SDS011;47068;55.780;37.520;2023-03-01T16:02:22;0.67;;;0.37;;
61204;SDS011;47068;55.780;37.520;2023-03-01T16:04:47;0.10;;;0.00;;
61204;SDS011;47068;55.780;37.520;2023-03-01T16:07:16;0.10;;;0.03;;
61204;SDS011;47068;55.780;37.520;2023-03-01T16:09:41;0.00;;;0.00;;
61204;SDS011;47068;55.780;37.520;2023-03-01T16:12:11;0.00;;;0.00;;
61204;SDS011;47068;55.780;37.520;2023-03-01T16:14:38;1.30;;;0.20;;
61204;SDS011;47068;55.780;37.520;2023-03-01T16:17:03;1.63;;;0.37;;
61204;SDS011;47068;55.780;37.520;2023-03-01T16:19:29;0.23;;;0.20;;
61204;SDS011;47068;55.780;37.520;2023-03-01T16:21:54;0.03;;;0.00;;
61204;SDS011;47068;55.780;37.520;2023-03-01T16:24:20;0.00;;;0.00;;
61204;SDS011;47068;55.780;37.520;2023-03-01T16:26:45;0.00;;;0.00;;
61204;SDS011;47068;55.780;37.520;2023-03-01T16:29:14;1.07;;;0.37;;
61204;SDS011;47068;55.780;37.520;2023-03-01T16:31:40;0.73;;;0.47;;
61204;SDS011;47068;55.780;37.520;2023-03-01T16:34:05;0.28;;;0.10;;
61204;SDS011;47068;55.780;37.520;2023-03-01T16:36:31;1.13;;;0.30;;
61204;SDS011;47068;55.780;37.520;2023-03-01T16:38:59;1.17;;;0.37;;
61204;SDS011;47068;55.780;37.520;2023-03-01T16:41:28;0.00;;;0.00;;
61204;SDS011;47068;55.780;37.520;2023-03-01T16:43:53;0.00;;;0.00;;
61204;SDS011;47068;55.780;37.520;2023-03-01T16:46:20;0.83;;;0.27;;
61204;SDS011;47068;55.780;37.520;2023-03-01T16:48:46;0.40;;;0.10;;